Time;durP1;ratioP1;P1;durP2;ratioP2;P2;SDS_P1;SDS_P2;PMS_P1;PMS_P2;Temp;Humidity;BMP_temperature;BMP_pressure;BME280_temperature;BME280_humidity;BME280_pressure;Samples;Min_cycle;Max_cycle;Signal;HPM_P1;HPM_P2
2022/06/18 00:02:18;;;;;;;9.27;4.97;;;20.50;99.90;;;;;;5052389;28;20508;-81
2022/06/18 00:05:05;;;;;;;12.02;5.25;;;20.40;99.90;;;;;;5039584;28;20049;-81
2022/06/18 00:07:53;;;;;;;9.57;5.28;;;20.40;99.90;;;;;;5053398;28;20755;-81
2022/06/18 00:10:40;;;;;;;8.68;4.93;;;20.30;99.90;;;;;;5053833;28;20575;-82
2022/06/18 00:13:40;;;;;;;9.10;5.20;;;20.20;99.90;;;;;;5054332;28;20045;-82
2022/06/18 00:16:29;;;;;;;9.98;6.30;;;20.10;99.90;;;;;;5052690;28;20059;-80
2022/06/18 00:19:16;;;;;;;11.38;6.47;;;20.00;99.90;;;;;;5053495;28;20424;-81
2022/06/18 00:22:02;;;;;;;8.63;6.50;;;19.90;99.90;;;;;;5053750;28;20914;-82
2022/06/18 00:24:50;;;;;;;11.02;6.50;;;19.80;99.90;;;;;;5038300;28;20049;-81
2022/06/18 00:27:37;;;;;;;13.85;6.97;;;19.80;99.90;;;;;;5052105;28;20532;-81
2022/06/18 00:30:25;;;;;;;8.45;5.82;;;19.70;99.90;;;;;;5035068;28;20458;-82
2022/06/18 00:33:11;;;;;;;11.80;5.97;;;19.70;99.90;;;;;;5052495;28;20045;-81
2022/06/18 00:36:03;;;;;;;10.25;6.18;;;19.60;99.90;;;;;;5046069;28;20605;-81
2022/06/18 00:38:49;;;;;;;8.40;5.88;;;19.60;99.90;;;;;;5052704;28;20103;-82
2022/06/18 00:41:36;;;;;;;12.30;7.25;;;19.60;99.90;;;;;;5034503;28;20411;-80
2022/06/18 00:44:35;;;;;;;10.27;6.32;;;19.50;99.90;;;;;;5038367;28;20049;-82
2022/06/18 00:47:39;;;;;;;9.15;6.40;;;19.60;99.90;;;;;;5052203;28;20076;-82
2022/06/18 00:50:37;;;;;;;10.60;5.65;;;19.50;99.90;;;;;;5035510;28;20396;-83
2022/06/18 00:53:44;;;;;;;12.68;6.43;;;19.50;99.90;;;;;;5052757;28;20057;-82
2022/06/18 00:56:45;;;;;;;9.60;6.45;;;19.50;99.90;;;;;;5050754;28;20507;-82
2022/06/18 00:59:42;;;;;;;9.25;7.20;;;19.40;99.90;;;;;;5052731;28;20088;-82
2022/06/18 01:02:34;;;;;;;10.20;7.55;;;19.30;99.90;;;;;;5051577;28;20041;-83
2022/06/18 01:05:26;;;;;;;12.95;7.80;;;19.30;99.90;;;;;;5034652;28;20131;-82
2022/06/18 01:08:16;;;;;;;10.88;7.15;;;19.20;99.90;;;;;;5052156;28;20575;-82
2022/06/18 01:11:06;;;;;;;12.25;8.13;;;19.10;99.90;;;;;;5051841;28;20049;-81
2022/06/18 01:13:53;;;;;;;10.32;7.40;;;19.10;99.90;;;;;;5051670;28;20049;-83
2022/06/18 01:16:39;;;;;;;10.98;8.15;;;19.00;99.90;;;;;;5053112;28;20053;-82
2022/06/18 01:19:31;;;;;;;12.27;7.05;;;18.90;99.90;;;;;;5033891;28;20052;-83
2022/06/18 01:22:48;;;;;;;14.48;8.60;;;18.90;99.90;;;;;;5052100;28;20416;-82
2022/06/18 01:25:34;;;;;;;16.77;9.27;;;18.80;99.90;;;;;;5050365;28;20124;-83
2022/06/18 01:28:21;;;;;;;13.15;8.48;;;18.70;99.90;;;;;;5050630;28;20087;-84
2022/06/18 01:31:07;;;;;;;13.57;8.40;;;18.70;99.90;;;;;;5032850;28;20088;-81
2022/06/18 01:37:55;;;;;;;15.00;10.93;;;18.60;99.90;;;;;;5052013;28;20392;-82
2022/06/18 01:40:54;;;;;;;15.80;10.60;;;18.50;99.90;;;;;;5050757;28;20056;-81
2022/06/18 01:43:40;;;;;;;20.88;11.68;;;18.40;99.90;;;;;;5051150;28;20052;-81
2022/06/18 01:46:29;;;;;;;17.55;11.00;;;18.30;99.90;;;;;;5033135;28;20114;-80
2022/06/18 01:49:20;;;;;;;17.42;10.23;;;18.30;99.90;;;;;;5051546;28;20072;-81
2022/06/18 01:52:08;;;;;;;27.83;10.93;;;18.20;99.90;;;;;;5050803;28;20060;-81
2022/06/18 01:54:58;;;;;;;21.42;11.30;;;18.10;99.90;;;;;;5052180;28;20052;-81
2022/06/18 01:58:25;;;;;;;18.23;9.63;;;18.10;99.90;;;;;;5051602;28;20421;-82
2022/06/18 02:01:17;;;;;;;20.00;8.68;;;18.10;99.90;;;;;;5032424;28;20045;-83
2022/06/18 02:04:03;;;;;;;18.02;8.48;;;18.00;99.90;;;;;;5051225;28;20103;-82
2022/06/18 02:06:52;;;;;;;16.73;7.57;;;18.00;99.90;;;;;;5051608;28;20381;-82
2022/06/18 02:09:41;;;;;;;18.65;8.05;;;18.00;99.90;;;;;;5033524;28;20200;-82
2022/06/18 02:12:32;;;;;;;17.65;7.20;;;18.00;99.90;;;;;;5034216;28;20139;-82
2022/06/18 02:15:31;;;;;;;23.02;8.15;;;17.90;99.90;;;;;;5050585;28;20518;-81
2022/06/18 02:18:19;;;;;;;18.67;7.40;;;17.90;99.90;;;;;;5050794;28;20131;-83
2022/06/18 02:21:11;;;;;;;16.80;7.85;;;17.80;99.90;;;;;;5051918;28;20056;-82
2022/06/18 02:23:57;;;;;;;28.15;8.68;;;17.80;99.90;;;;;;5033113;28;20056;-83
2022/06/18 02:26:45;;;;;;;17.73;8.43;;;17.80;99.90;;;;;;5051410;28;20068;-83
2022/06/18 02:29:32;;;;;;;13.60;7.45;;;17.70;99.90;;;;;;5032248;28;20091;-84
2022/06/18 02:32:28;;;;;;;25.73;9.52;;;17.70;99.90;;;;;;5051185;28;20106;-82
2022/06/18 02:35:15;;;;;;;17.77;8.68;;;17.60;99.90;;;;;;5049923;28;20551;-83
2022/06/18 02:38:13;;;;;;;18.17;8.43;;;17.50;99.90;;;;;;5051774;28;20436;-82
2022/06/18 02:41:00;;;;;;;18.70;8.07;;;17.50;99.90;;;;;;5050613;28;20562;-82
2022/06/18 02:43:46;;;;;;;18.27;9.57;;;17.50;99.90;;;;;;5033471;28;20057;-82
2022/06/18 02:46:32;;;;;;;21.70;9.15;;;17.40;99.90;;;;;;5036238;28;20745;-82
2022/06/18 02:49:20;;;;;;;20.52;9.23;;;17.40;99.90;;;;;;5033304;28;20110;-83
2022/06/18 02:52:07;;;;;;;17.33;9.20;;;17.40;99.90;;;;;;5033359;28;20048;-83
2022/06/18 02:55:12;;;;;;;20.77;9.88;;;17.40;99.90;;;;;;5049968;28;20049;-84
2022/06/18 02:58:14;;;;;;;20.67;8.70;;;17.30;99.90;;;;;;5030410;28;20057;-83
2022/06/18 03:01:07;;;;;;;25.48;10.65;;;17.30;99.90;;;;;;5013176;28;20489;-81
2022/06/18 03:03:57;;;;;;;23.60;10.45;;;17.30;99.90;;;;;;5016505;28;20500;-82
2022/06/18 03:06:43;;;;;;;23.25;9.20;;;17.20;99.90;;;;;;5030281;28;20535;-81
2022/06/18 03:09:29;;;;;;;20.95;9.10;;;17.20;99.90;;;;;;5030349;28;20060;-82
2022/06/18 03:12:15;;;;;;;18.92;9.93;;;17.20;99.90;;;;;;5013372;28;20081;-82
2022/06/18 03:15:01;;;;;;;19.45;9.98;;;17.10;99.90;;;;;;5013200;28;20050;-84
2022/06/18 03:17:48;;;;;;;19.98;9.35;;;17.10;99.90;;;;;;5031461;28;20045;-81
2022/06/18 03:21:03;;;;;;;21.98;9.50;;;17.10;99.90;;;;;;5030419;28;20140;-83
2022/06/18 03:23:49;;;;;;;25.80;10.45;;;17.10;99.90;;;;;;5005954;28;20133;-81
2022/06/18 03:26:36;;;;;;;25.35;10.80;;;17.10;99.90;;;;;;5030534;28;20103;-81
2022/06/18 03:29:22;;;;;;;16.77;9.07;;;17.00;99.90;;;;;;5029958;28;20501;-84
2022/06/18 03:32:09;;;;;;;20.70;10.07;;;17.00;99.90;;;;;;5030831;28;20791;-82
2022/06/18 03:34:55;;;;;;;24.17;10.38;;;17.00;99.90;;;;;;5011962;28;20073;-82
2022/06/18 03:37:41;;;;;;;17.30;9.15;;;17.00;99.90;;;;;;5030065;28;20438;-84
2022/06/18 03:40:28;;;;;;;22.52;9.57;;;17.00;99.90;;;;;;5013546;28;20053;-84
2022/06/18 03:43:14;;;;;;;20.17;10.10;;;17.00;99.90;;;;;;5012870;28;20059;-82
2022/06/18 03:46:05;;;;;;;19.48;11.95;;;17.00;99.90;;;;;;4998740;28;20050;-83
2022/06/18 03:48:59;;;;;;;21.88;10.70;;;17.00;99.90;;;;;;4999240;28;20136;-84
2022/06/18 03:51:45;;;;;;;21.75;11.07;;;17.00;99.90;;;;;;4999341;28;20524;-83
2022/06/18 03:54:31;;;;;;;23.95;11.07;;;17.10;99.90;;;;;;5015760;28;20045;-82
2022/06/18 03:57:18;;;;;;;22.20;11.55;;;17.10;99.90;;;;;;5048194;28;20057;-83
2022/06/18 04:00:11;;;;;;;17.85;10.98;;;17.10;99.90;;;;;;5035842;28;20500;-83
2022/06/18 04:02:57;;;;;;;24.50;10.68;;;17.10;99.90;;;;;;5051866;28;20067;-84
2022/06/18 04:05:43;;;;;;;23.30;12.25;;;17.20;99.90;;;;;;5052863;28;20056;-85
2022/06/18 04:08:29;;;;;;;24.30;10.30;;;17.10;99.90;;;;;;5053789;28;20432;-83
2022/06/18 04:11:16;;;;;;;19.75;9.20;;;17.20;99.90;;;;;;5053428;28;20404;-82
2022/06/18 04:14:03;;;;;;;20.15;10.60;;;17.20;99.90;;;;;;5054821;28;20041;-84
2022/06/18 04:16:49;;;;;;;21.60;9.85;;;17.20;99.90;;;;;;5022218;28;20122;-85
2022/06/18 04:19:35;;;;;;;20.75;9.43;;;17.30;99.90;;;;;;5039202;28;20461;-83
2022/06/18 04:22:22;;;;;;;21.45;9.27;;;17.30;99.90;;;;;;5052686;28;20508;-84
2022/06/18 04:25:08;;;;;;;19.88;9.65;;;17.30;99.90;;;;;;5039647;28;20102;-83
2022/06/18 04:27:57;;;;;;;18.20;8.45;;;17.40;99.90;;;;;;5046566;28;20627;-83
2022/06/18 04:30:43;;;;;;;20.70;9.90;;;17.40;99.90;;;;;;5035015;28;20049;-84
2022/06/18 04:33:30;;;;;;;20.65;8.30;;;17.40;99.90;;;;;;5007051;28;20132;-82
2022/06/18 04:36:31;;;;;;;21.13;8.55;;;17.50;99.90;;;;;;5037448;28;20053;-82
2022/06/18 04:39:17;;;;;;;19.92;8.40;;;17.50;99.90;;;;;;5053156;28;20049;-82
2022/06/18 04:42:04;;;;;;;16.92;7.93;;;17.60;99.90;;;;;;5052606;28;20515;-85
2022/06/18 04:44:50;;;;;;;19.05;7.85;;;17.60;99.90;;;;;;5034997;28;20037;-82
2022/06/18 04:47:37;;;;;;;20.33;8.40;;;17.70;99.90;;;;;;5039210;28;20059;-82
2022/06/18 04:50:27;;;;;;;17.25;9.43;;;17.80;99.90;;;;;;5035431;28;20556;-82
2022/06/18 04:53:13;;;;;;;16.95;7.95;;;17.80;99.90;;;;;;5052792;28;20132;-83
2022/06/18 04:55:59;;;;;;;20.27;8.25;;;17.90;99.90;;;;;;5033651;28;20053;-84
2022/06/18 04:58:46;;;;;;;14.35;7.15;;;18.00;99.90;;;;;;5052708;28;20044;-84
2022/06/18 05:01:32;;;;;;;21.70;8.65;;;18.00;99.90;;;;;;5035691;28;20063;-83
2022/06/18 05:04:18;;;;;;;15.10;5.95;;;18.10;99.90;;;;;;5035306;28;20103;-82
2022/06/18 05:07:04;;;;;;;14.68;6.90;;;18.20;99.90;;;;;;5021733;28;20078;-83
2022/06/18 05:09:51;;;;;;;19.05;7.47;;;18.20;99.90;;;;;;5021532;28;20063;-84
2022/06/18 05:12:38;;;;;;;12.82;6.93;;;18.30;99.90;;;;;;5053588;28;20055;-83
2022/06/18 05:15:24;;;;;;;16.50;6.78;;;18.40;99.90;;;;;;5021525;28;20055;-85
2022/06/18 05:18:15;;;;;;;22.60;6.55;;;18.40;99.90;;;;;;5053280;28;20460;-85
2022/06/18 05:21:02;;;;;;;15.98;6.47;;;18.50;99.90;;;;;;5035028;28;20049;-84
2022/06/18 05:23:48;;;;;;;16.60;7.18;;;18.50;99.90;;;;;;5021440;28;20508;-84
2022/06/18 05:26:34;;;;;;;17.73;7.50;;;18.50;99.90;;;;;;5053064;28;20061;-82
2022/06/18 05:29:20;;;;;;;13.18;6.32;;;18.50;99.90;;;;;;5050988;28;20056;-81
2022/06/18 05:32:07;;;;;;;17.52;6.95;;;18.40;99.90;;;;;;5033729;28;20811;-81
2022/06/18 05:34:53;;;;;;;18.95;7.18;;;18.50;99.90;;;;;;5034616;28;20492;-80
2022/06/18 05:37:39;;;;;;;17.95;6.60;;;18.50;99.90;;;;;;5053881;28;20132;-84
2022/06/18 05:40:29;;;;;;;19.65;5.93;;;18.60;99.90;;;;;;5035305;28;20052;-81
2022/06/18 05:43:15;;;;;;;20.10;7.22;;;18.60;99.90;;;;;;5053778;28;20140;-82
2022/06/18 05:46:02;;;;;;;17.90;6.68;;;18.60;99.90;;;;;;5053226;28;20056;-82
2022/06/18 05:48:49;;;;;;;14.93;6.40;;;18.60;99.90;;;;;;5054525;28;20048;-82
2022/06/18 05:51:35;;;;;;;14.27;6.68;;;18.70;99.90;;;;;;5053600;28;20064;-82
2022/06/18 05:54:21;;;;;;;16.80;6.88;;;18.80;99.90;;;;;;5052599;28;20416;-82
2022/06/18 05:57:09;;;;;;;14.25;6.75;;;18.80;99.90;;;;;;5037060;28;20109;-82
2022/06/18 05:59:55;;;;;;;21.05;7.28;;;18.90;99.90;;;;;;5029810;28;20049;-82
2022/06/18 06:02:42;;;;;;;16.77;6.10;;;18.90;99.90;;;;;;5013188;28;20639;-82
2022/06/18 06:05:29;;;;;;;17.13;5.88;;;19.00;99.90;;;;;;5012683;28;20539;-82
2022/06/18 06:08:15;;;;;;;16.25;5.45;;;19.10;99.90;;;;;;5013575;28;20153;-84
2022/06/18 06:14:06;;;;;;;11.13;5.10;;;19.20;99.90;;;;;;5030551;28;20042;-82
2022/06/18 06:16:53;;;;;;;12.25;3.92;;;19.30;99.90;;;;;;5031017;28;20053;-82
2022/06/18 06:19:39;;;;;;;11.07;4.00;;;19.40;99.90;;;;;;5029887;28;20413;-81
2022/06/18 06:22:26;;;;;;;9.45;3.50;;;19.50;99.90;;;;;;5031176;28;20061;-83
2022/06/18 06:25:12;;;;;;;15.40;3.63;;;19.60;99.90;;;;;;5030584;28;20060;-83
2022/06/18 06:27:59;;;;;;;10.02;3.60;;;19.70;99.90;;;;;;5014132;28;20160;-82
2022/06/18 06:30:46;;;;;;;12.70;3.70;;;19.80;99.90;;;;;;5013335;28;20053;-83
2022/06/18 06:33:32;;;;;;;8.20;3.28;;;19.90;99.90;;;;;;5030262;28;20428;-84
2022/06/18 06:36:18;;;;;;;8.30;3.10;;;20.00;99.90;;;;;;5031266;28;20176;-82
2022/06/18 06:39:05;;;;;;;17.17;3.72;;;20.10;99.90;;;;;;5000395;28;20045;-82
2022/06/18 06:41:51;;;;;;;11.63;3.60;;;20.20;99.90;;;;;;5030099;28;20227;-83
2022/06/18 06:44:37;;;;;;;8.88;2.85;;;20.30;99.90;;;;;;5031353;28;20123;-83
2022/06/18 06:47:23;;;;;;;9.27;2.90;;;20.40;99.90;;;;;;5016945;28;20519;-85
2022/06/18 06:50:11;;;;;;;6.38;2.58;;;20.50;99.90;;;;;;5016125;28;20045;-84
2022/06/18 06:52:57;;;;;;;6.03;2.10;;;20.60;99.90;;;;;;4999854;28;20053;-83
2022/06/18 06:58:50;;;;;;;9.48;2.78;;;20.80;99.90;;;;;;5051142;28;20049;-82
2022/06/18 07:01:37;;;;;;;8.38;2.33;;;21.00;99.90;;;;;;5019223;28;20095;-81
2022/06/18 07:04:24;;;;;;;5.88;1.77;;;21.00;99.90;;;;;;5036145;28;20053;-84
2022/06/18 07:07:14;;;;;;;7.28;2.03;;;21.10;99.90;;;;;;5050363;28;20500;-81
2022/06/18 07:10:01;;;;;;;4.45;2.17;;;21.30;99.90;;;;;;5050102;28;20045;-81
2022/06/18 07:12:47;;;;;;;5.20;2.35;;;21.30;99.90;;;;;;5043273;28;20053;-82
2022/06/18 07:15:34;;;;;;;7.00;2.45;;;21.30;99.90;;;;;;5049425;28;20160;-84
2022/06/18 07:18:24;;;;;;;8.07;2.50;;;21.30;99.90;;;;;;5030931;28;20041;-82
2022/06/18 07:21:13;;;;;;;7.93;2.53;;;21.50;99.90;;;;;;5049742;28;20132;-82
2022/06/18 07:23:59;;;;;;;6.95;2.17;;;21.50;99.90;;;;;;5020659;28;20086;-82
2022/06/18 07:26:45;;;;;;;7.00;2.10;;;21.50;99.90;;;;;;5051177;28;20060;-81
2022/06/18 07:29:32;;;;;;;8.00;2.05;;;21.40;99.90;;;;;;5048193;28;20111;-83
2022/06/18 07:32:20;;;;;;;7.78;1.88;;;21.30;99.90;;;;;;5049730;28;20077;-84
2022/06/18 07:35:06;;;;;;;7.72;2.40;;;21.40;99.90;;;;;;5049985;28;20531;-81
2022/06/18 07:37:59;;;;;;;6.68;2.42;;;21.40;99.90;;;;;;5050513;28;20485;-81
2022/06/18 07:40:50;;;;;;;7.70;2.67;;;21.30;99.90;;;;;;5053447;28;20106;-81
2022/06/18 07:43:44;;;;;;;9.27;1.98;;;21.20;99.90;;;;;;5037275;28;20055;-81
2022/06/18 07:46:30;;;;;;;10.38;2.58;;;21.40;99.90;;;;;;5039819;28;20389;-80
2022/06/18 07:49:17;;;;;;;8.65;2.90;;;21.40;99.90;;;;;;5054126;28;20055;-79
2022/06/18 07:52:04;;;;;;;6.15;2.00;;;21.50;99.90;;;;;;5036933;28;20045;-84
2022/06/18 07:54:50;;;;;;;7.07;2.00;;;21.50;99.90;;;;;;5054255;28;20053;-81
2022/06/18 07:57:36;;;;;;;5.82;1.98;;;21.50;99.90;;;;;;5033850;28;20049;-83
2022/06/18 08:00:23;;;;;;;9.93;1.80;;;21.40;99.90;;;;;;5034194;28;20048;-82
2022/06/18 08:03:12;;;;;;;4.78;1.73;;;21.30;99.90;;;;;;5022410;28;20397;-83
2022/06/18 08:05:58;;;;;;;7.18;1.48;;;21.50;99.90;;;;;;5004539;28;20053;-80
2022/06/18 08:08:44;;;;;;;4.80;1.60;;;21.50;99.90;;;;;;5016429;28;20049;-80
2022/06/18 08:11:31;;;;;;;7.15;2.00;;;21.70;99.90;;;;;;5034452;28;20048;-81
2022/06/18 08:14:17;;;;;;;6.07;1.90;;;21.90;99.90;;;;;;5035505;28;20061;-80
2022/06/18 08:17:04;;;;;;;9.48;1.75;;;22.20;99.90;;;;;;5018092;28;20053;-83
2022/06/18 08:19:50;;;;;;;10.32;1.77;;;22.10;99.90;;;;;;5017230;28;20187;-83
2022/06/18 08:22:41;;;;;;;5.93;1.40;;;22.30;99.90;;;;;;5016772;28;20053;-81
2022/06/18 08:25:30;;;;;;;7.13;1.83;;;22.30;99.90;;;;;;5017085;28;20088;-82
2022/06/18 08:28:16;;;;;;;5.78;2.05;;;22.40;99.90;;;;;;5035178;28;20551;-81
2022/06/18 08:31:05;;;;;;;9.55;1.75;;;22.30;99.90;;;;;;5035529;28;20049;-80
2022/06/18 08:33:51;;;;;;;4.97;1.40;;;22.40;99.90;;;;;;5035402;28;20053;-81
2022/06/18 08:36:39;;;;;;;6.95;1.67;;;22.60;99.90;;;;;;5036024;28;20488;-80
2022/06/18 08:39:25;;;;;;;5.97;1.65;;;22.50;99.90;;;;;;5017184;28;20038;-82
2022/06/18 08:42:20;;;;;;;9.27;1.67;;;22.80;99.90;;;;;;5015764;28;20058;-83
2022/06/18 08:45:24;;;;;;;7.45;1.60;;;22.90;99.90;;;;;;5032275;28;20572;-82
2022/06/18 08:48:16;;;;;;;5.55;1.40;;;22.90;99.90;;;;;;5031911;28;20489;-83
2022/06/18 08:51:11;;;;;;;10.02;1.58;;;22.90;99.90;;;;;;5032691;28;20041;-81
2022/06/18 08:54:33;;;;;;;;;;;22.90;99.90;;;;;;5032703;28;20045;-79
2022/06/18 08:57:30;;;;;;;8.60;1.70;;;22.80;99.90;;;;;;4993661;28;19929;-84
2022/06/18 09:00:54;;;;;;;6.57;1.50;;;22.90;99.90;;;;;;5034311;28;20064;-83
2022/06/18 09:04:06;;;;;;;7.60;1.60;;;22.90;99.90;;;;;;5014427;28;20396;-82
2022/06/18 09:07:09;;;;;;;8.48;1.50;;;22.70;99.90;;;;;;5038230;28;20057;-83
2022/06/18 09:10:01;;;;;;;5.43;1.60;;;23.10;99.90;;;;;;5006799;28;20143;-83
2022/06/18 09:13:08;;;;;;;6.93;1.67;;;23.50;99.90;;;;;;5037289;28;20131;-81
2022/06/18 09:16:00;;;;;;;9.35;1.83;;;23.70;99.90;;;;;;5046912;28;20063;-81
2022/06/18 09:18:52;;;;;;;9.10;1.40;;;23.50;99.90;;;;;;5045911;28;20208;-81
2022/06/18 09:21:49;;;;;;;5.65;1.15;;;23.70;99.90;;;;;;5051854;28;20082;-83
2022/06/18 09:24:42;;;;;;;4.20;0.95;;;23.90;99.90;;;;;;5053047;28;20095;-81
2022/06/18 09:27:48;;;;;;;7.65;1.58;;;24.10;99.90;;;;;;5052479;28;20144;-81
2022/06/18 09:30:43;;;;;;;6.35;1.27;;;23.90;99.50;;;;;;5038837;28;20091;-82
2022/06/18 09:33:45;;;;;;;5.13;1.13;;;24.10;99.80;;;;;;5052832;28;20049;-83
2022/06/18 09:36:37;;;;;;;10.40;1.63;;;24.10;99.70;;;;;;5051760;28;20060;-81
2022/06/18 09:39:29;;;;;;;5.97;1.48;;;24.20;99.60;;;;;;5036596;28;20132;-81
2022/06/18 09:42:28;;;;;;;5.90;1.38;;;24.30;99.30;;;;;;5053783;28;20057;-81
2022/06/18 09:45:24;;;;;;;7.38;1.25;;;24.70;97.90;;;;;;5052406;28;20052;-81
2022/06/18 09:48:11;;;;;;;4.28;0.88;;;24.90;98.30;;;;;;5052914;28;20135;-80
2022/06/18 09:51:13;;;;;;;7.07;1.98;;;24.50;97.50;;;;;;5050581;28;20052;-80
2022/06/18 09:54:04;;;;;;;7.00;1.23;;;24.40;97.70;;;;;;5050901;28;20442;-79
2022/06/18 09:56:56;;;;;;;4.93;1.27;;;24.60;97.20;;;;;;5045076;28;20053;-80
2022/06/18 10:00:03;;;;;;;6.53;1.33;;;24.50;97.50;;;;;;5051000;28;20048;-80
2022/06/18 10:03:02;;;;;;;5.40;1.38;;;24.60;97.80;;;;;;5051231;28;20103;-79
2022/06/18 10:08:55;;;;;;;4.22;1.38;;;24.70;97.30;;;;;;5051603;28;20049;-79
2022/06/18 10:11:42;;;;;;;12.57;2.38;;;24.90;97.80;;;;;;5051597;28;20055;-82
2022/06/18 10:14:28;;;;;;;8.68;1.45;;;24.80;97.50;;;;;;5051513;28;20099;-80
2022/06/18 10:17:39;;;;;;;7.35;1.38;;;25.00;96.80;;;;;;5050978;28;20087;-81
2022/06/18 10:20:44;;;;;;;8.07;1.55;;;25.40;95.70;;;;;;5050983;28;20045;-80
2022/06/18 10:28:05;;;;;;;6.65;1.73;;;25.40;94.60;;;;;;5051012;28;20511;-81
2022/06/18 10:31:04;;;;;;;6.80;1.40;;;25.30;95.10;;;;;;4963008;28;20515;-82
2022/06/18 10:38:25;;;;;;;3.22;0.90;;;25.60;92.60;;;;;;5050803;28;20139;-81
2022/06/18 10:41:37;;;;;;;5.38;1.42;;;26.00;92.60;;;;;;5036689;28;20059;-83
2022/06/18 10:44:46;;;;;;;5.82;1.17;;;25.80;93.10;;;;;;5050190;28;20110;-82
2022/06/18 10:47:40;;;;;;;6.57;1.45;;;26.10;92.50;;;;;;5032676;28;20232;-80
2022/06/18 10:50:26;;;;;;;5.60;1.35;;;25.90;92.30;;;;;;5034133;28;20041;-80
2022/06/18 10:53:15;;;;;;;7.97;1.58;;;25.90;92.40;;;;;;5036301;28;20055;-80
2022/06/18 10:56:12;;;;;;;7.07;1.88;;;25.80;92.60;;;;;;5050326;28;20108;-80
2022/06/18 10:59:02;;;;;;;8.65;1.83;;;25.80;91.50;;;;;;5033287;28;20060;-82
2022/06/18 11:01:48;;;;;;;7.90;1.40;;;25.60;91.50;;;;;;5050637;28;20045;-81
2022/06/18 11:04:36;;;;;;;10.88;2.20;;;25.80;91.50;;;;;;5031494;28;20057;-81
2022/06/18 11:07:25;;;;;;;7.68;1.88;;;25.80;91.00;;;;;;5049063;28;20044;-82
2022/06/18 11:10:25;;;;;;;7.13;1.20;;;25.90;91.30;;;;;;5018786;28;20049;-81
2022/06/18 11:13:22;;;;;;;9.38;1.77;;;26.30;90.10;;;;;;5052388;28;20041;-79
2022/06/18 11:16:27;;;;;;;6.82;1.67;;;26.50;90.30;;;;;;5050298;28;20049;-82
2022/06/18 11:19:17;;;;;;;;;;;26.50;90.00;;;;;;5055713;28;20049;-82
2022/06/18 11:22:29;;;;;;;9.65;1.65;;;26.40;89.80;;;;;;5038048;28;19974;-83
2022/06/18 11:25:30;;;;;;;4.63;1.27;;;26.20;90.20;;;;;;5051725;28;20048;-80
2022/06/18 11:28:23;;;;;;;5.60;1.88;;;26.10;90.80;;;;;;5054116;28;20052;-79
2022/06/18 11:31:19;;;;;;;11.90;1.88;;;26.40;90.00;;;;;;5053406;28;20396;-81
2022/06/18 11:34:16;;;;;;;11.30;2.28;;;26.70;90.00;;;;;;5049065;28;20053;-80
2022/06/18 11:37:16;;;;;;;11.57;1.88;;;26.50;89.60;;;;;;5027461;28;20136;-80
2022/06/18 11:40:18;;;;;;;5.75;1.52;;;26.80;89.40;;;;;;5053586;28;20037;-80
2022/06/18 11:43:12;;;;;;;9.32;2.25;;;27.00;88.90;;;;;;5028703;28;20049;-81
2022/06/18 11:46:13;;;;;;;7.68;1.80;;;26.60;87.50;;;;;;5031120;28;20401;-81
2022/06/18 11:49:18;;;;;;;12.40;2.10;;;26.70;87.20;;;;;;5034823;28;20060;-82
2022/06/18 11:52:23;;;;;;;10.48;2.03;;;26.80;87.30;;;;;;5054055;28;20049;-83
2022/06/18 11:55:18;;;;;;;10.77;2.33;;;26.80;85.90;;;;;;5049286;28;20048;-80
2022/06/18 11:58:27;;;;;;;12.48;2.05;;;26.90;85.70;;;;;;5054890;28;20041;-81
2022/06/18 12:01:30;;;;;;;8.18;2.03;;;26.90;87.30;;;;;;5049995;28;20408;-80
2022/06/18 12:04:47;;;;;;;8.52;1.63;;;27.10;85.70;;;;;;5038970;28;20063;-81
2022/06/18 12:07:46;;;;;;;9.02;2.08;;;27.20;83.80;;;;;;5052213;28;20053;-81
2022/06/18 12:10:43;;;;;;;9.38;1.80;;;27.40;83.70;;;;;;5054521;28;20130;-80
2022/06/18 12:13:34;;;;;;;10.52;1.90;;;27.70;80.70;;;;;;5039478;28;20416;-83
2022/06/18 12:16:56;;;;;;;9.73;2.65;;;27.70;77.90;;;;;;5053708;28;20056;-81
2022/06/18 12:20:06;;;;;;;7.57;2.47;;;27.90;77.40;;;;;;4939382;29;20055;-83
2022/06/18 12:23:08;;;;;;;9.13;2.47;;;27.70;74.40;;;;;;5052130;28;20115;-81
2022/06/18 12:26:03;;;;;;;9.95;2.15;;;28.20;75.70;;;;;;5052139;28;20052;-82
2022/06/18 12:29:15;;;;;;;9.60;2.30;;;28.00;74.40;;;;;;5034850;28;20052;-82
2022/06/18 12:32:23;;;;;;;11.32;2.40;;;27.70;75.80;;;;;;5035385;28;20045;-82
2022/06/18 12:35:37;;;;;;;10.65;2.35;;;27.80;76.60;;;;;;5034234;28;20049;-81
2022/06/18 12:39:02;;;;;;;10.13;2.22;;;27.60;77.40;;;;;;5053477;28;20154;-81
2022/06/18 12:42:07;;;;;;;10.57;2.05;;;27.70;74.20;;;;;;4999859;28;20113;-81
2022/06/18 12:45:21;;;;;;;7.28;2.20;;;27.60;78.10;;;;;;5053012;28;20084;-82
2022/06/18 12:48:34;;;;;;;10.07;2.67;;;27.80;76.90;;;;;;5052953;28;20451;-82
2022/06/18 12:51:41;;;;;;;12.68;2.83;;;27.80;73.80;;;;;;5030343;28;20053;-83
2022/06/18 12:54:46;;;;;;;14.07;3.08;;;27.50;76.10;;;;;;5052719;28;20041;-82
2022/06/18 12:57:53;;;;;;;13.32;2.83;;;27.50;77.10;;;;;;5053224;28;20402;-81
2022/06/18 13:00:56;;;;;;;12.38;2.83;;;27.40;75.80;;;;;;5030555;28;20045;-80
2022/06/18 13:04:06;;;;;;;10.15;2.60;;;27.70;74.50;;;;;;5034364;28;20088;-81
2022/06/18 13:07:06;;;;;;;11.02;3.60;;;27.40;76.50;;;;;;5051752;28;20076;-82
2022/06/18 13:10:20;;;;;;;8.48;2.05;;;27.40;77.70;;;;;;5052440;28;20099;-80
2022/06/18 13:13:39;;;;;;;15.45;3.13;;;27.50;73.40;;;;;;5034425;28;20481;-80
2022/06/18 13:16:37;;;;;;;13.57;2.92;;;27.50;72.60;;;;;;5010889;28;20053;-82
2022/06/18 13:19:39;;;;;;;10.90;2.63;;;27.40;71.30;;;;;;5051674;28;20055;-82
2022/06/18 13:22:27;;;;;;;9.40;2.00;;;28.00;74.10;;;;;;5052502;28;20045;-83
2022/06/18 13:28:28;;;;;;;14.50;3.55;;;27.80;70.80;;;;;;5028383;28;20046;-81
2022/06/18 13:31:38;;;;;;;13.73;2.83;;;27.90;70.00;;;;;;5034991;28;20064;-81
2022/06/18 13:34:46;;;;;;;9.88;2.30;;;27.70;70.10;;;;;;5019893;28;20052;-82
2022/06/18 13:38:01;;;;;;;9.40;2.33;;;27.70;70.90;;;;;;5050740;28;20085;-83
2022/06/18 13:40:51;;;;;;;;;;;27.40;69.50;;;;;;5035283;28;20503;-81
2022/06/18 13:44:17;;;;;;;12.75;2.35;;;26.90;68.80;;;;;;5034550;28;20387;-79
2022/06/18 13:47:21;;;;;;;10.32;2.05;;;26.50;71.30;;;;;;5051750;28;20041;-82
2022/06/18 13:50:32;;;;;;;8.85;1.92;;;26.00;73.30;;;;;;5052257;28;20095;-80
2022/06/18 13:53:42;;;;;;;12.48;2.28;;;26.10;74.10;;;;;;5051639;28;20435;-80
2022/06/18 13:56:29;;;;;;;9.85;2.47;;;26.10;77.40;;;;;;5018863;28;20093;-80
2022/06/18 13:59:20;;;;;;;13.23;3.00;;;26.00;78.80;;;;;;5032541;28;20059;-81
2022/06/18 14:02:39;;;;;;;8.52;2.60;;;26.00;77.00;;;;;;5051801;28;20140;-81
2022/06/18 14:05:45;;;;;;;10.65;2.33;;;26.00;77.80;;;;;;5050960;28;20282;-81
2022/06/18 14:08:46;;;;;;;7.45;2.20;;;25.80;75.20;;;;;;5050697;28;20044;-83
2022/06/18 14:11:37;;;;;;;9.63;2.17;;;26.20;75.30;;;;;;5051158;28;20040;-80
2022/06/18 14:14:36;;;;;;;8.93;2.05;;;26.40;76.00;;;;;;5052212;28;20053;-83
2022/06/18 14:17:23;;;;;;;12.90;2.45;;;27.10;74.10;;;;;;5020580;28;20053;-81
2022/06/18 14:20:31;;;;;;;10.38;2.60;;;27.10;70.00;;;;;;5049630;28;20052;-80
2022/06/18 14:23:29;;;;;;;11.73;3.00;;;27.20;69.80;;;;;;5051533;28;20106;-80
2022/06/18 14:26:19;;;;;;;6.97;1.80;;;27.20;70.70;;;;;;5052221;28;20143;-80
2022/06/18 14:29:06;;;;;;;14.07;2.60;;;27.50;68.20;;;;;;5050119;28;20048;-80
2022/06/18 14:32:05;;;;;;;12.63;2.13;;;27.60;67.70;;;;;;5036249;28;20520;-80
2022/06/18 14:34:51;;;;;;;8.27;2.22;;;27.30;66.00;;;;;;5050643;28;20061;-81
2022/06/18 14:37:42;;;;;;;9.30;3.13;;;26.90;67.20;;;;;;5032871;28;20558;-80
2022/06/18 14:41:34;;;;;;;13.23;2.92;;;26.70;67.00;;;;;;5051975;28;20444;-80
2022/06/18 14:44:12;;;;;;;11.75;2.20;;;26.20;67.70;;;;;;5033744;28;20148;-81
2022/06/18 14:47:04;;;;;;;10.52;2.40;;;25.70;67.40;;;;;;5049916;28;20512;-80
2022/06/18 14:50:03;;;;;;;8.98;1.83;;;25.60;68.50;;;;;;5032011;28;20060;-80
2022/06/18 14:53:37;;;;;;;11.02;3.08;;;25.30;70.40;;;;;;5035874;28;20052;-81
2022/06/18 14:56:50;;;;;;;9.63;2.22;;;25.30;71.60;;;;;;5012230;28;20053;-81
2022/06/18 15:00:18;;;;;;;10.80;2.05;;;25.30;74.00;;;;;;5035931;28;20049;-80
2022/06/18 15:03:46;;;;;;;13.68;2.15;;;25.10;77.40;;;;;;5035796;28;20128;-81
2022/06/18 15:06:35;;;;;;;12.77;2.83;;;25.20;79.90;;;;;;5009535;28;20052;-82
2022/06/18 15:09:34;;;;;;;13.35;4.15;;;25.30;78.90;;;;;;5048605;28;20130;-81
2022/06/18 15:12:20;;;;;;;18.80;3.10;;;25.40;80.60;;;;;;5049635;28;20582;-82
2022/06/18 15:15:08;;;;;;;8.07;1.80;;;25.40;79.80;;;;;;5032488;28;20084;-81
2022/06/18 15:20:54;;;;;;;12.10;3.38;;;25.00;75.80;;;;;;5050388;28;20052;-81
2022/06/18 15:24:04;;;;;;;15.77;3.05;;;24.40;79.10;;;;;;5049558;28;20500;-80
2022/06/18 15:26:53;;;;;;;10.60;2.90;;;24.20;79.00;;;;;;5049190;28;20452;-83